Time;durP1;ratioP1;P1;durP2;ratioP2;P2;SDS_P1;SDS_P2;PMS_P1;PMS_P2;Temp;Humidity;BMP_temperature;BMP_pressure;BME280_temperature;BME280_humidity;BME280_pressure;Samples;Min_cycle;Max_cycle;Signal;HPM_P1;HPM_P2
2023/07/17 00:01:16;;;;;;;0.00;0.00;;;14.80;90.10;;;;;;5085244;28;20108;-71
2023/07/17 00:03:41;;;;;;;0.03;0.03;;;14.80;94.80;;;;;;5084946;28;20048;-73
2023/07/17 00:06:07;;;;;;;1.75;0.98;;;14.80;90.20;;;;;;5085055;28;20403;-73
2023/07/17 00:08:32;;;;;;;0.65;0.40;;;14.80;82.10;;;;;;5084917;28;20044;-73
2023/07/17 00:10:58;;;;;;;1.45;0.77;;;14.80;93.70;;;;;;5085164;28;20044;-73
2023/07/17 00:13:25;;;;;;;0.57;0.52;;;15.00;99.90;;;;;;5084599;28;20048;-73
2023/07/17 00:15:51;;;;;;;0.03;0.03;;;14.90;99.90;;;;;;5085166;28;20040;-73
2023/07/17 00:18:16;;;;;;;1.13;0.17;;;14.90;99.90;;;;;;5084698;28;20047;-73
2023/07/17 00:20:42;;;;;;;0.60;0.57;;;14.90;99.90;;;;;;5084525;28;20046;-73
2023/07/17 00:23:08;;;;;;;0.47;0.47;;;14.90;99.90;;;;;;5084722;28;20048;-72
2023/07/17 00:25:34;;;;;;;0.20;0.15;;;14.90;99.90;;;;;;5084615;28;20051;-73
2023/07/17 00:27:59;;;;;;;0.60;0.25;;;15.00;99.90;;;;;;5084717;28;20044;-72
2023/07/17 00:30:25;;;;;;;0.13;0.13;;;15.00;99.90;;;;;;5084907;28;20109;-73
2023/07/17 00:32:51;;;;;;;0.08;0.08;;;15.00;99.90;;;;;;5084608;28;20048;-73
2023/07/17 00:35:17;;;;;;;0.88;0.43;;;15.10;99.90;;;;;;5084314;28;20123;-73
2023/07/17 00:37:42;;;;;;;0.90;0.38;;;15.10;99.90;;;;;;5084432;28;20040;-73
2023/07/17 00:40:08;;;;;;;0.57;0.30;;;15.10;99.90;;;;;;5084383;28;20054;-73
2023/07/17 00:42:34;;;;;;;0.38;0.20;;;15.00;99.90;;;;;;5084548;28;20380;-73
2023/07/17 00:45:00;;;;;;;2.17;0.82;;;15.00;99.90;;;;;;5084104;28;20494;-73
2023/07/17 00:47:28;;;;;;;0.38;0.30;;;15.00;99.90;;;;;;5084750;28;20044;-73
2023/07/17 00:49:53;;;;;;;5.38;1.55;;;14.90;99.90;;;;;;5084582;28;20046;-73
2023/07/17 00:52:19;;;;;;;0.03;0.03;;;15.00;99.90;;;;;;5084228;28;20039;-73
2023/07/17 00:54:46;;;;;;;0.55;0.08;;;14.80;99.90;;;;;;5084155;28;20101;-70
2023/07/17 00:57:15;;;;;;;0.00;0.00;;;14.80;99.90;;;;;;5084308;28;20094;-70
2023/07/17 00:59:41;;;;;;;5.38;1.08;;;14.70;99.90;;;;;;5083779;28;20098;-70
2023/07/17 01:02:08;;;;;;;0.25;0.25;;;14.80;99.90;;;;;;5084094;28;20112;-72
2023/07/17 01:04:35;;;;;;;0.00;0.00;;;14.80;99.90;;;;;;5084095;28;20112;-72
2023/07/17 01:07:01;;;;;;;0.28;0.20;;;14.80;99.90;;;;;;5084015;28;20123;-72
2023/07/17 01:09:27;;;;;;;0.77;0.68;;;14.70;99.90;;;;;;5083858;28;20127;-72
2023/07/17 01:11:52;;;;;;;0.52;0.52;;;14.80;99.90;;;;;;5083587;28;20521;-72
2023/07/17 01:14:19;;;;;;;0.10;0.10;;;14.90;99.90;;;;;;5083841;28;20113;-72
2023/07/17 01:16:47;;;;;;;0.15;0.15;;;14.80;99.90;;;;;;5083792;28;20043;-72
2023/07/17 01:19:13;;;;;;;0.08;0.08;;;14.80;99.90;;;;;;5083914;28;20086;-72
2023/07/17 01:21:50;;;;;;;0.10;0.10;;;14.80;99.90;;;;;;5083857;28;20150;-72
2023/07/17 01:24:16;;;;;;;0.00;0.00;;;14.80;99.90;;;;;;5083804;28;20085;-72
2023/07/17 01:26:41;;;;;;;0.10;0.10;;;14.70;99.90;;;;;;5083898;28;20055;-72
2023/07/17 01:29:07;;;;;;;0.00;0.00;;;14.60;99.90;;;;;;5083939;28;20039;-72
2023/07/17 01:31:33;;;;;;;0.00;0.00;;;14.60;99.90;;;;;;5083582;28;20466;-71
2023/07/17 01:33:59;;;;;;;0.30;0.30;;;14.50;99.90;;;;;;5083621;28;20785;-72
2023/07/17 01:36:26;;;;;;;0.43;0.17;;;14.50;99.90;;;;;;5083847;28;20044;-72
2023/07/17 01:38:52;;;;;;;0.52;0.43;;;14.50;99.90;;;;;;5083486;28;20060;-72
2023/07/17 01:41:17;;;;;;;0.05;0.05;;;14.40;99.90;;;;;;5083379;28;20079;-71
2023/07/17 01:43:43;;;;;;;5.57;1.55;;;14.40;99.90;;;;;;5083861;28;20498;-72
2023/07/17 01:46:09;;;;;;;0.20;0.20;;;14.30;99.90;;;;;;5083221;28;20193;-76
2023/07/17 01:48:35;;;;;;;0.52;0.38;;;14.30;99.90;;;;;;5083207;28;20048;-72
2023/07/17 01:51:00;;;;;;;0.10;0.10;;;14.30;99.90;;;;;;5082974;28;20040;-72
2023/07/17 01:53:26;;;;;;;0.00;0.00;;;14.30;99.90;;;;;;5082949;28;20040;-72
2023/07/17 01:55:51;;;;;;;0.22;0.13;;;14.30;99.90;;;;;;5082938;28;20068;-72
2023/07/17 01:58:17;;;;;;;3.50;1.92;;;14.20;99.90;;;;;;5082730;28;20055;-72
2023/07/17 02:00:43;;;;;;;0.00;0.00;;;14.10;99.90;;;;;;5083203;28;20047;-72
2023/07/17 02:03:08;;;;;;;0.00;0.00;;;14.10;99.90;;;;;;5083447;28;20044;-72
2023/07/17 02:05:34;;;;;;;0.40;0.30;;;14.00;99.90;;;;;;5086673;28;20127;-72
2023/07/17 02:08:00;;;;;;;0.25;0.25;;;14.00;99.90;;;;;;5087185;28;20494;-72
2023/07/17 02:10:25;;;;;;;0.93;0.63;;;13.90;99.90;;;;;;5086786;28;20040;-72
2023/07/17 02:12:51;;;;;;;0.40;0.28;;;13.80;99.90;;;;;;5087288;28;20270;-72
2023/07/17 02:15:17;;;;;;;0.00;0.00;;;13.60;99.90;;;;;;5086990;28;20048;-72
2023/07/17 02:17:42;;;;;;;0.52;0.20;;;13.50;99.90;;;;;;5087033;28;20040;-72
2023/07/17 02:20:10;;;;;;;0.43;0.43;;;13.50;99.90;;;;;;5087003;28;20040;-71
2023/07/17 02:22:36;;;;;;;0.98;0.43;;;13.40;99.90;;;;;;5087468;28;20088;-72
2023/07/17 02:25:06;;;;;;;0.00;0.00;;;13.40;99.90;;;;;;5086865;28;20689;-70
2023/07/17 02:27:33;;;;;;;0.38;0.22;;;13.30;99.90;;;;;;5086362;28;20043;-70
2023/07/17 02:29:59;;;;;;;0.75;0.22;;;13.30;99.90;;;;;;5086364;28;20082;-70
2023/07/17 02:32:27;;;;;;;0.20;0.15;;;13.20;99.90;;;;;;5087044;28;20155;-70
2023/07/17 02:34:52;;;;;;;0.03;0.03;;;13.20;99.90;;;;;;5086738;28;20514;-70
2023/07/17 02:37:18;;;;;;;0.00;0.00;;;13.20;99.90;;;;;;5086394;28;20039;-70
2023/07/17 02:39:43;;;;;;;0.00;0.00;;;13.20;99.90;;;;;;5086423;28;20055;-70
2023/07/17 02:42:09;;;;;;;0.05;0.05;;;13.10;99.90;;;;;;5086404;28;20048;-70
2023/07/17 02:44:35;;;;;;;0.60;0.35;;;13.10;99.90;;;;;;5086628;28;20119;-70
2023/07/17 02:47:00;;;;;;;1.02;0.70;;;13.10;99.90;;;;;;5086634;28;20127;-70
2023/07/17 02:49:26;;;;;;;0.10;0.10;;;13.00;99.90;;;;;;5086476;28;20040;-70
2023/07/17 02:51:51;;;;;;;0.00;0.00;;;13.00;99.90;;;;;;5086730;28;20044;-70
2023/07/17 02:54:17;;;;;;;0.10;0.00;;;13.00;99.90;;;;;;5086180;28;20558;-70
2023/07/17 02:56:42;;;;;;;0.00;0.00;;;12.90;99.90;;;;;;5086497;28;20047;-71
2023/07/17 02:59:08;;;;;;;0.30;0.20;;;12.90;99.90;;;;;;5086519;28;20520;-71
2023/07/17 03:01:34;;;;;;;1.77;0.57;;;12.80;99.90;;;;;;5086465;28;20040;-71
2023/07/17 03:03:59;;;;;;;0.10;0.05;;;12.90;99.90;;;;;;5086491;28;20502;-71
2023/07/17 03:06:25;;;;;;;0.10;0.10;;;12.90;99.90;;;;;;5086332;28;20216;-71
2023/07/17 03:08:50;;;;;;;0.00;0.00;;;12.90;99.90;;;;;;5086066;28;20454;-71
2023/07/17 03:11:16;;;;;;;0.03;0.03;;;12.90;99.90;;;;;;5086642;28;20050;-71
2023/07/17 03:13:42;;;;;;;19.80;0.43;;;12.90;99.90;;;;;;5086320;28;20483;-71
2023/07/17 03:16:08;;;;;;;0.08;0.08;;;12.80;99.90;;;;;;5085830;28;20097;-71
2023/07/17 03:18:33;;;;;;;0.38;0.25;;;12.80;99.90;;;;;;5086140;28;20862;-71
2023/07/17 03:20:59;;;;;;;0.10;0.10;;;12.80;99.90;;;;;;5085835;28;20058;-71
2023/07/17 03:23:25;;;;;;;0.38;0.32;;;12.90;99.90;;;;;;5085850;28;20090;-71
2023/07/17 03:25:51;;;;;;;0.20;0.20;;;12.80;99.90;;;;;;5086112;28;20406;-71
2023/07/17 03:28:16;;;;;;;0.50;0.47;;;12.80;99.90;;;;;;5085684;28;20121;-71
2023/07/17 03:30:42;;;;;;;1.17;0.95;;;12.80;99.90;;;;;;5085778;28;20089;-71
2023/07/17 03:33:07;;;;;;;0.03;0.03;;;12.80;99.90;;;;;;5085698;28;20048;-71
2023/07/17 03:35:34;;;;;;;0.25;0.13;;;12.80;99.90;;;;;;5085692;28;20127;-71
2023/07/17 03:37:59;;;;;;;0.00;0.00;;;12.70;99.90;;;;;;5085476;28;20486;-71
2023/07/17 03:40:25;;;;;;;11.75;0.40;;;12.70;99.90;;;;;;5084621;28;20055;-71
2023/07/17 03:42:51;;;;;;;0.00;0.00;;;12.70;99.90;;;;;;5085847;28;20059;-74
2023/07/17 03:45:17;;;;;;;0.00;0.00;;;12.60;99.90;;;;;;5086298;28;20462;-71
2023/07/17 03:47:43;;;;;;;0.00;0.00;;;12.60;99.90;;;;;;5085665;28;20113;-71
2023/07/17 03:50:09;;;;;;;0.05;0.05;;;13.70;99.90;;;;;;5085713;28;20141;-71
2023/07/17 03:52:35;;;;;;;0.00;0.00;;;12.70;99.90;;;;;;5085530;28;20550;-71
2023/07/17 03:55:01;;;;;;;0.00;0.00;;;12.80;99.90;;;;;;5085701;28;20079;-71
2023/07/17 03:57:27;;;;;;;0.73;0.28;;;12.80;99.90;;;;;;5085633;28;20048;-71
2023/07/17 03:59:54;;;;;;;2.00;0.75;;;12.80;99.90;;;;;;5085498;28;20047;-71
2023/07/17 04:02:21;;;;;;;3.60;0.55;;;12.90;99.90;;;;;;5086044;28;20052;-71
2023/07/17 04:04:47;;;;;;;0.10;0.10;;;12.90;99.90;;;;;;5086109;28;20036;-71
2023/07/17 04:07:13;;;;;;;1.17;1.10;;;12.90;99.90;;;;;;5085671;28;20048;-72
2023/07/17 04:09:39;;;;;;;0.00;0.00;;;12.80;99.90;;;;;;5085170;28;20040;-71
2023/07/17 04:12:05;;;;;;;0.00;0.00;;;12.90;99.90;;;;;;5085037;28;20128;-71
2023/07/17 04:14:33;;;;;;;0.17;0.17;;;12.90;99.90;;;;;;5085014;28;20123;-71
2023/07/17 04:16:59;;;;;;;0.30;0.30;;;12.90;99.90;;;;;;5085001;28;20048;-71
2023/07/17 04:19:26;;;;;;;1.10;0.35;;;12.90;99.90;;;;;;5085176;28;20104;-71
2023/07/17 04:21:52;;;;;;;0.20;0.13;;;12.90;99.90;;;;;;5085495;28;20058;-71
2023/07/17 04:24:17;;;;;;;1.77;1.00;;;12.90;99.90;;;;;;5085283;28;20044;-71
2023/07/17 04:26:43;;;;;;;0.43;0.10;;;13.00;99.90;;;;;;5084327;28;20414;-71
2023/07/17 04:29:10;;;;;;;0.68;0.45;;;13.10;99.90;;;;;;5084868;28;20044;-71
2023/07/17 04:31:36;;;;;;;0.00;0.00;;;13.20;99.90;;;;;;5085291;28;20062;-71
2023/07/17 04:34:02;;;;;;;0.75;0.30;;;13.30;99.90;;;;;;5084803;28;20040;-71
2023/07/17 04:36:28;;;;;;;0.85;0.60;;;13.40;99.90;;;;;;5085178;28;20108;-71
2023/07/17 04:38:53;;;;;;;0.35;0.35;;;13.40;99.90;;;;;;5085024;28;20055;-71
2023/07/17 04:41:19;;;;;;;0.00;0.00;;;13.40;99.90;;;;;;5084821;28;20079;-71
2023/07/17 04:43:45;;;;;;;0.00;0.00;;;13.60;99.90;;;;;;5084630;28;20040;-71
2023/07/17 04:46:11;;;;;;;0.70;0.63;;;13.70;99.90;;;;;;5084824;28;20043;-71
2023/07/17 04:48:36;;;;;;;0.00;0.00;;;13.70;99.90;;;;;;5084131;28;20040;-71
2023/07/17 04:51:02;;;;;;;0.40;0.40;;;13.80;99.90;;;;;;5084353;28;20151;-71
2023/07/17 04:53:28;;;;;;;0.38;0.17;;;14.00;99.90;;;;;;5084832;28;20044;-71
2023/07/17 04:55:53;;;;;;;0.00;0.00;;;14.60;99.90;;;;;;5084289;28;20597;-71
2023/07/17 04:58:19;;;;;;;2.20;1.48;;;15.30;99.90;;;;;;5084105;28;20101;-71
2023/07/17 05:00:46;;;;;;;0.73;0.63;;;15.90;99.90;;;;;;5084157;28;20050;-72
2023/07/17 05:03:13;;;;;;;0.00;0.00;;;16.50;99.90;;;;;;5083837;28;20048;-71
2023/07/17 05:05:39;;;;;;;0.00;0.00;;;17.10;99.90;;;;;;5084308;28;20127;-71
2023/07/17 05:08:05;;;;;;;0.30;0.30;;;17.40;91.60;;;;;;5084970;28;20055;-72
2023/07/17 05:10:32;;;;;;;0.00;0.00;;;17.60;1.00;;;;;;5084142;28;20040;-72
2023/07/17 05:13:00;;;;;;;2.33;1.13;;;17.90;99.90;;;;;;5084282;28;20048;-72
2023/07/17 05:15:25;;;;;;;1.23;0.65;;;18.20;99.90;;;;;;5084503;28;20101;-72
2023/07/17 05:17:51;;;;;;;0.47;0.43;;;18.40;99.90;;;;;;5084202;28;20055;-72
2023/07/17 05:20:17;;;;;;;1.23;0.32;;;18.70;99.90;;;;;;5084461;28;20047;-72
2023/07/17 05:22:42;;;;;;;0.50;0.40;;;19.00;31.10;;;;;;5084318;28;20525;-71
2023/07/17 05:25:08;;;;;;;3.42;1.10;;;19.30;1.00;;;;;;5084425;28;20405;-72
2023/07/17 05:27:34;;;;;;;7.38;0.68;;;19.40;1.00;;;;;;5084401;28;20044;-72
2023/07/17 05:29:59;;;;;;;0.38;0.38;;;19.80;1.00;;;;;;5084356;28;20047;-71
2023/07/17 05:32:25;;;;;;;0.80;0.30;;;20.10;99.90;;;;;;5083402;28;20047;-72
2023/07/17 05:34:53;;;;;;;2.95;0.40;;;20.20;99.90;;;;;;5082290;28;20403;-72
2023/07/17 05:37:19;;;;;;;0.55;0.47;;;19.80;99.90;;;;;;5082206;28;20467;-72
2023/07/17 05:39:45;;;;;;;0.00;0.00;;;19.20;99.90;;;;;;5081840;28;20555;-72
2023/07/17 05:42:10;;;;;;;0.32;0.32;;;19.40;99.90;;;;;;5081991;28;20148;-72
2023/07/17 05:44:36;;;;;;;0.30;0.30;;;19.00;99.90;;;;;;5081801;28;20392;-72
2023/07/17 05:47:02;;;;;;;0.00;0.00;;;18.30;99.90;;;;;;5081859;28;20044;-71
2023/07/17 05:49:28;;;;;;;0.20;0.20;;;17.70;99.90;;;;;;5081975;28;20052;-72
2023/07/17 05:51:53;;;;;;;1.08;0.70;;;17.20;22.40;;;;;;5081733;28;20482;-71
2023/07/17 05:54:20;;;;;;;0.25;0.22;;;17.30;99.90;;;;;;5081702;28;20079;-71
2023/07/17 05:56:46;;;;;;;0.75;0.50;;;17.40;99.90;;;;;;5081640;28;20406;-71
2023/07/17 05:59:12;;;;;;;0.03;0.03;;;17.50;99.90;;;;;;5081805;28;20048;-71
2023/07/17 06:01:37;;;;;;;1.23;0.47;;;18.20;84.20;;;;;;5081558;28;20518;-72
2023/07/17 06:04:03;;;;;;;0.10;0.10;;;19.30;1.00;;;;;;5082087;28;20043;-71
2023/07/17 06:06:29;;;;;;;0.13;0.13;;;19.90;99.90;;;;;;5082083;28;20086;-72
2023/07/17 06:08:54;;;;;;;0.00;0.00;;;19.30;99.90;;;;;;5081820;28;20056;-71
2023/07/17 06:11:20;;;;;;;0.65;0.32;;;18.60;99.90;;;;;;5081865;28;20080;-71
2023/07/17 06:13:45;;;;;;;0.70;0.30;;;18.10;99.90;;;;;;5081822;28;20048;-71
2023/07/17 06:16:11;;;;;;;0.08;0.03;;;17.90;99.90;;;;;;5081852;28;20509;-72
2023/07/17 06:18:37;;;;;;;0.10;0.10;;;17.70;1.00;;;;;;5081789;28;20111;-71
2023/07/17 06:21:03;;;;;;;22.05;2.00;;;17.50;51.10;;;;;;5081813;28;20123;-71
2023/07/17 06:23:28;;;;;;;1.27;1.02;;;18.10;43.50;;;;;;5081703;28;20518;-71
2023/07/17 06:25:54;;;;;;;0.28;0.25;;;19.20;99.90;;;;;;5081607;28;20569;-71
2023/07/17 06:28:19;;;;;;;0.10;0.10;;;20.00;99.90;;;;;;5081485;28;20418;-71
2023/07/17 06:30:46;;;;;;;2.05;0.80;;;20.50;99.90;;;;;;5081413;28;20082;-72
2023/07/17 06:33:13;;;;;;;1.95;0.85;;;21.00;99.90;;;;;;5081214;28;20552;-72
2023/07/17 06:35:39;;;;;;;0.20;0.20;;;21.70;99.90;;;;;;5081469;28;20047;-71
2023/07/17 06:38:05;;;;;;;0.00;0.00;;;21.70;99.90;;;;;;5081384;28;20046;-71
2023/07/17 06:40:30;;;;;;;1.98;0.82;;;21.20;99.90;;;;;;5081266;28;20043;-72
2023/07/17 06:42:56;;;;;;;1.35;0.90;;;21.30;99.90;;;;;;5081441;28;20475;-71
2023/07/17 06:45:22;;;;;;;0.38;0.38;;;21.60;99.90;;;;;;5081244;28;20040;-71
2023/07/17 06:47:48;;;;;;;1.27;0.55;;;21.90;99.90;;;;;;5081469;28;20055;-72
2023/07/17 06:50:13;;;;;;;1.10;0.55;;;21.70;81.00;;;;;;5082387;28;20059;-72
2023/07/17 06:52:41;;;;;;;0.32;0.32;;;21.20;83.90;;;;;;5085527;28;20043;-72
2023/07/17 06:55:07;;;;;;;0.03;0.03;;;21.50;83.70;;;;;;5085095;28;20091;-72
2023/07/17 06:57:33;;;;;;;1.50;0.85;;;21.90;52.20;;;;;;5084920;28;20105;-71
2023/07/17 06:59:59;;;;;;;2.92;0.17;;;22.20;53.00;;;;;;5085049;28;20494;-71
2023/07/17 07:02:24;;;;;;;0.22;0.22;;;22.30;42.30;;;;;;5085181;28;20051;-71
2023/07/17 07:04:50;;;;;;;0.63;0.50;;;22.60;47.90;;;;;;5085053;28;20083;-72
2023/07/17 07:07:16;;;;;;;0.30;0.28;;;23.10;83.60;;;;;;5085047;28;20150;-72
2023/07/17 07:09:41;;;;;;;0.10;0.10;;;23.40;74.70;;;;;;5084463;28;20104;-72
2023/07/17 07:12:08;;;;;;;0.20;0.20;;;23.40;24.20;;;;;;5084677;28;20051;-71
2023/07/17 07:14:33;;;;;;;0.82;0.45;;;23.00;3.00;;;;;;5084765;28;20054;-71
2023/07/17 07:16:59;;;;;;;0.20;0.20;;;22.80;11.10;;;;;;5084897;28;20036;-71
2023/07/17 07:19:24;;;;;;;0.35;0.32;;;22.90;1.00;;;;;;5084744;28;20039;-72
2023/07/17 07:21:50;;;;;;;1.58;0.80;;;23.00;1.00;;;;;;5084724;28;20048;-71
2023/07/17 07:24:16;;;;;;;0.45;0.32;;;22.70;1.00;;;;;;5084423;28;20071;-71
2023/07/17 07:26:42;;;;;;;0.65;0.57;;;22.50;1.00;;;;;;5084495;28;20486;-72
2023/07/17 07:29:07;;;;;;;2.75;1.17;;;22.40;1.00;;;;;;5084362;28;20051;-72
2023/07/17 07:31:33;;;;;;;0.95;0.65;;;22.00;1.00;;;;;;5084400;28;20040;-71
2023/07/17 07:33:59;;;;;;;2.92;1.20;;;21.80;1.00;;;;;;5084994;28;20040;-72
2023/07/17 07:36:28;;;;;;;0.55;0.47;;;21.40;1.00;;;;;;5084372;28;20048;-71
2023/07/17 07:38:54;;;;;;;0.30;0.30;;;21.20;1.00;;;;;;5084342;28;20075;-71
2023/07/17 07:41:20;;;;;;;0.10;0.10;;;21.70;1.00;;;;;;5084228;28;20071;-72
2023/07/17 07:43:45;;;;;;;0.57;0.57;;;22.20;1.00;;;;;;5083948;28;20409;-71
2023/07/17 07:46:11;;;;;;;0.75;0.75;;;22.60;1.00;;;;;;5084381;28;20048;-72
2023/07/17 07:48:37;;;;;;;1.48;0.57;;;23.00;1.00;;;;;;5083455;28;20051;-72
2023/07/17 07:51:03;;;;;;;1.35;0.57;;;23.60;1.00;;;;;;5084374;28;20043;-71
2023/07/17 07:53:30;;;;;;;0.45;0.10;;;23.90;1.00;;;;;;5083957;28;20500;-72
2023/07/17 07:55:56;;;;;;;2.72;1.35;;;23.50;1.00;;;;;;5084379;28;20111;-71
2023/07/17 07:58:21;;;;;;;0.40;0.40;;;23.40;1.00;;;;;;5083931;28;20128;-72
2023/07/17 08:00:47;;;;;;;1.80;0.50;;;23.40;1.00;;;;;;5083655;28;20040;-71
2023/07/17 08:03:13;;;;;;;0.50;0.47;;;23.70;1.00;;;;;;5082978;28;20044;-72
2023/07/17 08:05:38;;;;;;;3.08;0.93;;;23.50;1.00;;;;;;5083870;28;20490;-72
2023/07/17 08:08:04;;;;;;;0.30;0.30;;;22.10;1.00;;;;;;5083690;28;20044;-72
2023/07/17 08:10:30;;;;;;;0.20;0.10;;;20.50;1.00;;;;;;5083568;28;20437;-71
2023/07/17 08:12:57;;;;;;;0.43;0.30;;;19.40;1.00;;;;;;5083506;28;20574;-71
2023/07/17 08:15:23;;;;;;;14.55;0.85;;;18.40;1.00;;;;;;5083562;28;20127;-71
2023/07/17 08:17:48;;;;;;;0.20;0.20;;;17.70;99.90;;;;;;5083523;28;20199;-71
2023/07/17 08:20:14;;;;;;;0.95;0.88;;;17.50;99.90;;;;;;5083361;28;20113;-71
2023/07/17 08:22:40;;;;;;;2.35;1.02;;;17.60;99.90;;;;;;5083302;28;20052;-71
2023/07/17 08:25:07;;;;;;;1.02;0.28;;;17.80;99.90;;;;;;5083438;28;20123;-71
2023/07/17 08:27:32;;;;;;;2.08;1.40;;;18.00;99.90;;;;;;5083052;28;20132;-71
2023/07/17 08:29:58;;;;;;;0.45;0.30;;;18.60;99.90;;;;;;5083204;28;20098;-71
2023/07/17 08:32:23;;;;;;;1.08;0.95;;;19.70;1.00;;;;;;5083377;28;20051;-71
2023/07/17 08:34:49;;;;;;;0.60;0.60;;;20.50;99.90;;;;;;5083244;28;20047;-71
2023/07/17 08:37:15;;;;;;;0.20;0.20;;;21.20;99.90;;;;;;5083178;28;20378;-71
2023/07/17 08:39:41;;;;;;;0.75;0.63;;;22.00;99.90;;;;;;5083185;28;20044;-72
2023/07/17 08:42:06;;;;;;;1.13;0.50;;;23.30;99.90;;;;;;5082994;28;20087;-71
2023/07/17 08:44:33;;;;;;;13.88;3.28;;;23.80;55.20;;;;;;5083139;28;20058;-72
2023/07/17 08:47:01;;;;;;;0.45;0.40;;;23.30;1.00;;;;;;5083319;28;20040;-72
2023/07/17 08:49:27;;;;;;;0.22;0.22;;;22.60;1.00;;;;;;5083104;28;20059;-72
2023/07/17 08:51:56;;;;;;;0.70;0.22;;;22.80;1.00;;;;;;5082965;28;20449;-72
2023/07/17 08:54:22;;;;;;;0.70;0.35;;;22.90;1.00;;;;;;5083059;28;20048;-71
2023/07/17 08:56:49;;;;;;;0.57;0.57;;;22.50;1.00;;;;;;5083039;28;20079;-72
2023/07/17 08:59:15;;;;;;;0.52;0.35;;;22.90;1.00;;;;;;5082934;28;20044;-72
2023/07/17 09:01:42;;;;;;;1.65;1.13;;;22.60;1.00;;;;;;5082760;28;20505;-72
2023/07/17 09:04:09;;;;;;;0.55;0.55;;;22.30;1.00;;;;;;5082817;28;20048;-72
2023/07/17 09:06:34;;;;;;;5.57;1.38;;;21.60;1.00;;;;;;5083023;28;20052;-72
2023/07/17 09:09:00;;;;;;;0.90;0.73;;;21.30;1.00;;;;;;5082337;28;20050;-71
2023/07/17 09:11:26;;;;;;;0.57;0.47;;;21.10;1.00;;;;;;5082246;28;20090;-71
2023/07/17 09:13:52;;;;;;;0.10;0.10;;;20.70;1.00;;;;;;5082806;28;20083;-71
2023/07/17 09:16:20;;;;;;;0.70;0.65;;;20.30;99.90;;;;;;5082405;28;20063;-72
2023/07/17 09:18:50;;;;;;;0.25;0.20;;;20.10;99.90;;;;;;5082409;28;20048;-71
2023/07/17 09:21:18;;;;;;;0.28;0.20;;;19.80;99.90;;;;;;5082881;28;20506;-71
2023/07/17 09:23:49;;;;;;;0.15;0.15;;;19.70;99.90;;;;;;5082396;28;20486;-71
2023/07/17 09:26:20;;;;;;;0.00;0.00;;;19.90;99.90;;;;;;5082580;28;20055;-72
2023/07/17 09:28:46;;;;;;;0.98;0.43;;;20.10;99.90;;;;;;5082712;28;20044;-71
2023/07/17 09:31:11;;;;;;;0.70;0.52;;;21.50;99.90;;;;;;5082245;28;20056;-71
2023/07/17 09:33:37;;;;;;;0.45;0.30;;;21.30;99.90;;;;;;5082189;28;20039;-71
2023/07/17 09:36:03;;;;;;;0.00;0.00;;;22.20;1.00;;;;;;5082522;28;20085;-71
2023/07/17 09:38:31;;;;;;;0.17;0.17;;;22.40;99.90;;;;;;5082556;28;20044;-71
2023/07/17 09:40:57;;;;;;;0.10;0.10;;;22.20;99.90;;;;;;5081886;28;20171;-72
2023/07/17 09:43:31;;;;;;;0.15;0.08;;;23.00;1.00;;;;;;5081895;28;20506;-71
2023/07/17 09:46:01;;;;;;;0.10;0.10;;;24.20;99.90;;;;;;5082134;28;20097;-72
2023/07/17 09:48:27;;;;;;;0.95;0.80;;;24.40;99.90;;;;;;5081988;28;20044;-72
2023/07/17 09:51:00;;;;;;;2.72;0.70;;;25.30;99.90;;;;;;5081976;28;20048;-72
2023/07/17 09:53:27;;;;;;;0.28;0.28;;;25.80;99.90;;;;;;5081833;28;20490;-72
2023/07/17 09:55:54;;;;;;;0.20;0.20;;;25.30;99.90;;;;;;5082071;28;20067;-72
2023/07/17 09:58:23;;;;;;;0.30;0.10;;;24.60;99.90;;;;;;5081927;28;20173;-71
2023/07/17 10:00:49;;;;;;;0.00;0.00;;;23.70;99.90;;;;;;5081858;28;20040;-71
2023/07/17 10:03:18;;;;;;;0.00;0.00;;;22.80;99.90;;;;;;5081917;28;20117;-71
2023/07/17 10:05:44;;;;;;;0.00;0.00;;;22.20;99.90;;;;;;5081847;28;20494;-71
2023/07/17 10:08:13;;;;;;;0.35;0.30;;;21.90;99.90;;;;;;5081845;28;20064;-71
2023/07/17 10:10:40;;;;;;;0.73;0.52;;;22.00;99.90;;;;;;5081673;28;20054;-71
2023/07/17 10:13:10;;;;;;;0.85;0.73;;;22.60;99.90;;;;;;5082050;28;20980;-72
2023/07/17 10:15:39;;;;;;;0.47;0.40;;;23.30;99.90;;;;;;5082332;28;20094;-71
2023/07/17 10:18:09;;;;;;;0.45;0.30;;;23.70;99.90;;;;;;5082081;28;20390;-71
2023/07/17 10:20:38;;;;;;;0.10;0.10;;;23.70;99.90;;;;;;5081930;28;20450;-71
2023/07/17 10:23:21;;;;;;;0.55;0.28;;;23.60;99.90;;;;;;5081848;28;20558;-71
2023/07/17 10:25:46;;;;;;;0.05;0.05;;;23.60;99.90;;;;;;5083940;28;20052;-71
2023/07/17 10:28:12;;;;;;;0.75;0.43;;;23.40;99.90;;;;;;5085687;28;20050;-71
2023/07/17 10:30:37;;;;;;;0.15;0.03;;;23.10;99.90;;;;;;5085747;28;20123;-71
2023/07/17 10:33:13;;;;;;;0.17;0.15;;;23.10;99.90;;;;;;5085730;28;20067;-71
2023/07/17 10:35:50;;;;;;;2.30;0.40;;;23.20;99.90;;;;;;5085976;28;20044;-71
2023/07/17 10:38:17;;;;;;;0.30;0.30;;;23.50;99.90;;;;;;5085605;28;20504;-71
2023/07/17 10:40:44;;;;;;;0.00;0.00;;;23.90;99.90;;;;;;5085219;28;20100;-71
2023/07/17 10:43:20;;;;;;;0.45;0.40;;;24.20;99.90;;;;;;5085139;28;20521;-71
2023/07/17 10:45:47;;;;;;;0.25;0.17;;;24.20;99.90;;;;;;5085275;28;20048;-71
2023/07/17 10:48:17;;;;;;;0.10;0.10;;;24.30;99.90;;;;;;5085229;28;20052;-71
2023/07/17 10:50:54;;;;;;;0.10;0.10;;;24.40;99.90;;;;;;5084909;28;20048;-72
2023/07/17 10:53:20;;;;;;;0.38;0.22;;;24.50;99.90;;;;;;5085136;28;20056;-71
2023/07/17 10:55:46;;;;;;;0.10;0.10;;;24.90;99.90;;;;;;5085082;28;20035;-71
2023/07/17 10:58:13;;;;;;;1.35;0.45;;;24.80;96.50;;;;;;5084776;28;20110;-71
2023/07/17 11:00:43;;;;;;;2.10;0.70;;;24.70;78.00;;;;;;5085256;28;20040;-71
2023/07/17 11:03:22;;;;;;;0.30;0.30;;;24.20;57.40;;;;;;5085456;28;20119;-71
2023/07/17 11:05:48;;;;;;;0.43;0.30;;;23.90;30.10;;;;;;5084797;28;20093;-71
2023/07/17 11:08:14;;;;;;;0.10;0.10;;;23.70;1.50;;;;;;5085027;28;20059;-71
2023/07/17 11:10:44;;;;;;;0.80;0.30;;;23.90;18.70;;;;;;5085066;28;20678;-71
2023/07/17 11:13:10;;;;;;;0.10;0.10;;;24.10;1.00;;;;;;5085029;28;20048;-71
2023/07/17 11:15:37;;;;;;;1.35;0.75;;;24.40;1.00;;;;;;5084777;28;20599;-71
2023/07/17 11:18:04;;;;;;;0.00;0.00;;;24.90;1.00;;;;;;5084886;28;20054;-71
2023/07/17 11:20:31;;;;;;;0.10;0.10;;;25.10;1.10;;;;;;5085014;28;20569;-71
2023/07/17 11:22:57;;;;;;;0.57;0.35;;;24.90;1.00;;;;;;5084683;28;20084;-71
2023/07/17 11:25:32;;;;;;;0.28;0.28;;;24.90;1.00;;;;;;5084630;28;20089;-72
2023/07/17 11:28:00;;;;;;;0.20;0.08;;;25.10;1.00;;;;;;5084743;28;20044;-71
2023/07/17 11:30:32;;;;;;;1.38;0.70;;;25.30;1.00;;;;;;5084431;28;20051;-71
2023/07/17 11:32:57;;;;;;;0.52;0.20;;;25.90;1.00;;;;;;5084301;28;20470;-71
2023/07/17 11:35:36;;;;;;;0.00;0.00;;;26.10;1.00;;;;;;5084305;28;20108;-71
2023/07/17 11:38:04;;;;;;;0.38;0.30;;;25.80;1.00;;;;;;5084285;28;20043;-71
2023/07/17 11:40:30;;;;;;;0.00;0.00;;;25.90;1.00;;;;;;5082614;28;20050;-72
2023/07/17 11:43:02;;;;;;;0.10;0.10;;;26.20;1.00;;;;;;5084602;28;20048;-71
2023/07/17 11:45:28;;;;;;;1.55;0.60;;;26.60;1.00;;;;;;5084274;28;20043;-71
2023/07/17 11:47:55;;;;;;;0.60;0.38;;;26.30;1.00;;;;;;5084198;28;20486;-71
2023/07/17 11:50:25;;;;;;;0.13;0.13;;;26.20;1.00;;;;;;5084294;28;20054;-71
2023/07/17 11:53:08;;;;;;;0.85;0.65;;;25.80;1.00;;;;;;5084025;28;20130;-71
2023/07/17 11:55:39;;;;;;;1.75;0.85;;;25.50;1.00;;;;;;5083990;28;20043;-71
2023/07/17 11:58:29;;;;;;;0.00;0.00;;;24.80;99.90;;;;;;5083706;28;20402;-71
2023/07/17 12:00:55;;;;;;;0.22;0.22;;;24.60;1.00;;;;;;5084133;28;20452;-71
2023/07/17 12:03:22;;;;;;;1.08;0.70;;;25.30;1.00;;;;;;5084359;28;20414;-71
2023/07/17 12:05:48;;;;;;;0.40;0.35;;;24.90;1.00;;;;;;5083958;28;20048;-71
2023/07/17 12:08:14;;;;;;;0.63;0.30;;;25.40;1.00;;;;;;5083525;28;20048;-71
2023/07/17 12:10:40;;;;;;;0.52;0.30;;;26.30;1.00;;;;;;5083940;28;20399;-72
2023/07/17 12:13:06;;;;;;;0.38;0.10;;;27.10;1.00;;;;;;5083691;28;20059;-71
2023/07/17 12:15:33;;;;;;;0.28;0.22;;;28.10;1.00;;;;;;5083445;28;20048;-71
2023/07/17 12:17:58;;;;;;;0.00;0.00;;;28.40;1.00;;;;;;5084006;28;20047;-72
2023/07/17 12:20:25;;;;;;;0.68;0.38;;;27.70;1.00;;;;;;5084316;28;20529;-71
2023/07/17 12:22:53;;;;;;;0.95;0.30;;;26.70;1.00;;;;;;5083073;28;20520;-71
2023/07/17 12:25:19;;;;;;;1.60;0.10;;;25.80;1.00;;;;;;5083561;28;20454;-71
2023/07/17 12:27:46;;;;;;;0.25;0.17;;;26.30;99.90;;;;;;5083448;28;20135;-71
2023/07/17 12:30:13;;;;;;;0.40;0.40;;;26.20;99.90;;;;;;5083171;28;20052;-71
2023/07/17 12:32:39;;;;;;;0.20;0.10;;;26.20;99.90;;;;;;5083426;28;20073;-71
2023/07/17 12:35:06;;;;;;;0.00;0.00;;;26.40;99.90;;;;;;5083162;28;20136;-71
2023/07/17 12:37:32;;;;;;;0.03;0.03;;;26.90;99.90;;;;;;5083241;28;20047;-71
2023/07/17 12:39:58;;;;;;;1.35;0.40;;;27.40;99.90;;;;;;5083380;28;20472;-71
2023/07/17 12:42:24;;;;;;;0.43;0.43;;;27.60;99.90;;;;;;5082897;28;20122;-71
2023/07/17 12:44:50;;;;;;;0.43;0.30;;;27.70;99.90;;;;;;5081959;28;20589;-71